Antioch, Illinois
Current Conditions -  °F | °C
As of 6:16 PM on Thursday 18 Dec 2014 (Local Time) from KENW Reporting Station
Overcast Overcast  
Wind Chill: -6°   Ceiling: 2500
Heat Index: -3°   Visibility: 7mi
Dew Point: -4°   Wind: 6mph
Humidity: 92%   Direction: 290°WNW
Pressure: 30.25"   Gusts: NA
Location:  42.48°N, 88.1°W
Report Text: KENW 190016Z AUTO 29005KT 7SM SCT009 SCT013 OVC025 M03/M04 A3025 RMK AO2 T10281039
Loading
Personal Weather Stations






























Interactive Weather Map New forecast layout! Learn more

10-Day Weather Forecast

Advertisements
Track Severe Weather on mobile